createdAt,value
2019-05-13T00:01:44.139Z,3.53
2019-05-13T00:04:14.210Z,3.50
2019-05-13T00:06:53.922Z,3.33
2019-05-13T00:09:16.229Z,3.30
2019-05-13T00:11:46.213Z,3.02
2019-05-13T00:14:18.821Z,3.60
2019-05-13T00:16:47.880Z,3.17
2019-05-13T00:19:17.413Z,3.80
2019-05-13T00:21:45.944Z,3.73
2019-05-13T00:24:14.429Z,3.67
2019-05-13T00:26:44.486Z,3.50
2019-05-13T00:29:15.102Z,3.60
2019-05-13T00:31:45.608Z,3.47
2019-05-13T00:34:14.493Z,4.00
2019-05-13T00:36:47.168Z,3.70
2019-05-13T00:39:16.222Z,3.60
2019-05-13T00:41:48.891Z,3.63
2019-05-13T00:44:17.388Z,2.87
2019-05-13T00:46:46.870Z,3.27
2019-05-13T00:49:15.313Z,3.37
2019-05-13T00:51:44.466Z,4.27
2019-05-13T00:54:14.686Z,3.50
2019-05-13T00:56:46.598Z,3.13
2019-05-13T00:59:16.519Z,3.53
2019-05-13T01:01:45.069Z,3.80
2019-05-13T01:04:14.559Z,3.67
2019-05-13T01:06:48.629Z,3.27
2019-05-13T01:09:20.041Z,3.50
2019-05-13T01:11:53.722Z,3.80
2019-05-13T01:14:23.722Z,3.45
2019-05-13T01:16:54.381Z,3.90
2019-05-13T01:19:23.696Z,3.40
2019-05-13T01:21:53.994Z,3.80
2019-05-13T01:24:24.559Z,3.62
2019-05-13T01:26:57.809Z,3.90
2019-05-13T01:29:27.586Z,3.67
2019-05-13T01:31:56.043Z,4.07
2019-05-13T01:34:27.671Z,4.20
2019-05-13T01:36:58.343Z,4.72
2019-05-13T01:39:27.080Z,4.50
2019-05-13T01:41:56.678Z,3.70
2019-05-13T01:44:25.154Z,4.77
2019-05-13T01:46:57.693Z,3.77
2019-05-13T01:49:26.146Z,4.07
2019-05-13T01:51:57.276Z,4.83
2019-05-13T01:54:30.024Z,4.40
2019-05-13T01:56:59.016Z,4.67
2019-05-13T01:59:27.536Z,4.90
2019-05-13T02:01:56.032Z,4.97
2019-05-13T02:04:25.513Z,4.70
2019-05-13T02:06:55.610Z,4.43
2019-05-13T02:09:27.311Z,5.10
2019-05-13T02:11:55.775Z,4.80
2019-05-13T02:14:24.902Z,5.07
2019-05-13T02:16:53.719Z,5.03
2019-05-13T02:19:28.209Z,4.90
2019-05-13T02:21:57.714Z,5.30
2019-05-13T02:24:26.203Z,5.05
2019-05-13T02:26:57.239Z,5.35
2019-05-13T02:29:25.695Z,5.40
2019-05-13T02:31:56.186Z,5.70
2019-05-13T02:34:25.078Z,6.00
2019-05-13T02:36:53.553Z,5.73
2019-05-13T02:39:26.342Z,6.17
2019-05-13T02:41:54.876Z,5.45
2019-05-13T02:44:24.600Z,6.33
2019-05-13T02:46:53.556Z,5.83
2019-05-13T02:49:25.911Z,6.27
2019-05-13T02:51:54.974Z,5.20
2019-05-13T02:54:25.999Z,6.15
2019-05-13T02:56:54.447Z,5.95
2019-05-13T02:59:24.677Z,5.78
2019-05-13T03:01:53.694Z,5.90
2019-05-13T03:04:23.334Z,5.58
2019-05-13T03:06:56.458Z,5.85
2019-05-13T03:09:25.163Z,7.13
2019-05-13T03:11:59.427Z,6.40
2019-05-13T03:14:32.391Z,5.75
2019-05-13T03:17:07.033Z,6.08
2019-05-13T03:19:35.638Z,6.00
2019-05-13T03:22:06.987Z,6.37
2019-05-13T03:24:35.485Z,6.60
2019-05-13T03:27:07.059Z,6.03
2019-05-13T03:29:35.531Z,6.12
2019-05-13T03:32:07.408Z,6.33
2019-05-13T03:34:44.735Z,6.73
2019-05-13T03:37:15.372Z,6.40
2019-05-13T03:39:54.502Z,5.80
2019-05-13T03:42:27.665Z,7.22
2019-05-13T03:44:56.117Z,6.43
2019-05-13T03:47:28.857Z,5.80
2019-05-13T03:50:02.859Z,6.83
2019-05-13T03:52:33.293Z,7.03
2019-05-13T03:55:03.173Z,6.07
2019-05-13T03:57:33.742Z,5.55
2019-05-13T04:00:03.507Z,5.87
2019-05-13T04:02:36.199Z,7.07
2019-05-13T04:05:05.685Z,6.43
2019-05-13T04:07:35.911Z,6.70
2019-05-13T04:10:12.903Z,6.70
2019-05-13T04:12:44.909Z,7.70
2019-05-13T04:15:14.507Z,7.47
2019-05-13T04:17:43.182Z,6.27
2019-05-13T04:20:12.897Z,7.10
2019-05-13T04:22:44.231Z,7.53
2019-05-13T04:25:13.585Z,7.07
2019-05-13T04:27:44.261Z,7.12
2019-05-13T04:30:14.457Z,7.97
2019-05-13T04:32:46.005Z,6.87
2019-05-13T04:35:15.882Z,6.53
2019-05-13T04:37:44.495Z,7.07
2019-05-13T04:40:16.846Z,7.47
2019-05-13T04:42:45.445Z,7.53
2019-05-13T04:45:14.159Z,7.73
2019-05-13T04:47:43.317Z,10.67
2019-05-13T04:50:14.082Z,10.80
2019-05-13T04:52:44.271Z,10.40
2019-05-13T04:55:13.364Z,8.78
2019-05-13T04:57:43.737Z,8.28
2019-05-13T05:00:13.073Z,8.50
2019-05-13T05:02:55.061Z,8.03
2019-05-13T05:05:35.935Z,8.60
2019-05-13T05:08:32.855Z,7.67
2019-05-13T05:11:24.899Z,7.50
2019-05-13T05:14:05.541Z,8.23
2019-05-13T05:16:44.055Z,8.20
2019-05-13T05:19:32.026Z,8.25
2019-05-13T05:22:22.313Z,8.33
2019-05-13T05:25:15.003Z,9.00
2019-05-13T05:27:53.092Z,8.73
2019-05-13T05:30:51.878Z,8.23
2019-05-13T05:33:41.189Z,8.38
2019-05-13T05:36:33.256Z,8.20
2019-05-13T05:39:12.315Z,8.07
2019-05-13T05:41:43.384Z,7.22
2019-05-13T05:44:13.356Z,7.80
2019-05-13T05:46:42.971Z,6.78
2019-05-13T05:49:13.851Z,6.73
2019-05-13T05:51:44.034Z,6.43
2019-05-13T05:54:16.790Z,6.73
2019-05-13T05:57:06.106Z,6.47
2019-05-13T05:59:37.582Z,5.63
2019-05-13T06:02:11.593Z,5.73
2019-05-13T06:04:42.763Z,5.50
2019-05-13T06:07:11.839Z,4.57
2019-05-13T06:09:42.366Z,5.10
2019-05-13T06:12:12.911Z,4.90
2019-05-13T06:14:42.439Z,4.70
2019-05-13T06:17:12.082Z,4.60
2019-05-13T06:19:41.920Z,4.93
2019-05-13T06:22:12.254Z,3.93
2019-05-13T06:24:42.045Z,4.28
2019-05-13T06:27:11.874Z,4.83
2019-05-13T06:29:42.310Z,3.50
2019-05-13T06:32:21.226Z,4.33
2019-05-13T06:34:42.848Z,4.37
2019-05-13T06:37:21.689Z,3.87
2019-05-13T06:39:56.157Z,4.22
2019-05-13T06:42:26.915Z,3.70
2019-05-13T06:44:55.436Z,4.67
2019-05-13T06:47:24.153Z,4.40
2019-05-13T06:49:52.644Z,4.27
2019-05-13T06:52:22.403Z,3.97
2019-05-13T06:54:52.217Z,4.30
2019-05-13T06:57:22.133Z,3.70
2019-05-13T06:59:52.357Z,3.33
2019-05-13T07:02:25.349Z,3.83
2019-05-13T07:04:54.053Z,3.90
2019-05-13T07:07:23.083Z,3.17
2019-05-13T07:09:51.955Z,3.43
2019-05-13T07:12:25.185Z,3.53
2019-05-13T07:14:53.665Z,2.93
2019-05-13T07:17:23.646Z,3.13
2019-05-13T07:19:52.165Z,3.47
2019-05-13T07:22:22.914Z,3.25
2019-05-13T07:24:52.063Z,2.93
2019-05-13T07:27:23.573Z,2.87
2019-05-13T07:29:55.519Z,1.97
2019-05-13T07:32:42.399Z,2.23
2019-05-13T07:35:14.088Z,2.83
2019-05-13T07:37:44.587Z,1.70
2019-05-13T07:40:13.571Z,2.17
2019-05-13T07:42:42.314Z,2.53
2019-05-13T07:45:13.921Z,2.57
2019-05-13T07:47:44.003Z,2.20
2019-05-13T07:50:14.324Z,2.13
2019-05-13T07:52:42.836Z,2.07
2019-05-13T07:55:15.211Z,1.97
2019-05-13T07:57:43.691Z,2.30
2019-05-13T08:00:12.953Z,2.20
2019-05-13T08:02:44.341Z,2.30
2019-05-13T08:05:15.981Z,2.03
2019-05-13T08:07:44.467Z,2.35
2019-05-13T08:10:14.577Z,2.20
2019-05-13T08:12:43.079Z,1.80
2019-05-13T08:15:13.335Z,2.20
2019-05-13T08:17:47.278Z,1.97
2019-05-13T08:20:14.160Z,2.00
2019-05-13T08:22:42.753Z,2.10
2019-05-13T08:25:13.015Z,2.33
2019-05-13T08:27:42.176Z,2.10
2019-05-13T08:30:12.189Z,2.33
2019-05-13T08:32:41.888Z,2.30
2019-05-13T08:35:12.775Z,2.33
2019-05-13T08:37:45.445Z,2.40
2019-05-13T08:40:14.745Z,2.27
2019-05-13T08:42:43.266Z,2.50
2019-05-13T08:45:16.128Z,2.37
2019-05-13T08:47:44.629Z,2.10
2019-05-13T08:50:17.451Z,2.73
2019-05-13T08:52:48.329Z,2.40
2019-05-13T08:55:17.687Z,2.20
2019-05-13T08:57:47.899Z,2.05
2019-05-13T09:00:26.978Z,2.73
2019-05-13T09:02:56.449Z,1.83
2019-05-13T09:05:27.679Z,2.20
2019-05-13T09:07:57.244Z,2.17
2019-05-13T09:10:26.780Z,1.90
2019-05-13T09:12:55.430Z,2.53
2019-05-13T09:15:23.891Z,2.00
2019-05-13T09:17:58.256Z,1.87
2019-05-13T09:20:28.299Z,1.52
2019-05-13T09:22:58.077Z,1.57
2019-05-13T09:25:26.540Z,1.40
2019-05-13T09:27:55.084Z,1.53
2019-05-13T09:30:27.130Z,1.47
2019-05-13T09:32:56.917Z,1.47
2019-05-13T09:35:25.402Z,1.20
2019-05-13T09:37:54.366Z,1.30
2019-05-13T09:40:22.940Z,1.40
2019-05-13T09:42:55.351Z,1.60
2019-05-13T09:45:25.709Z,1.87
2019-05-13T09:47:54.246Z,1.50
2019-05-13T09:50:32.182Z,1.57
2019-05-13T09:52:56.196Z,1.80
2019-05-13T09:55:28.943Z,1.60
2019-05-13T09:57:54.866Z,1.70
2019-05-13T10:00:23.500Z,1.30
2019-05-13T10:02:52.205Z,1.20
2019-05-13T10:05:22.519Z,1.27
2019-05-13T10:07:52.409Z,1.70
2019-05-13T10:10:22.418Z,1.43
2019-05-13T10:13:07.857Z,1.50
2019-05-13T10:15:23.163Z,1.70
2019-05-13T10:17:53.536Z,1.33
2019-05-13T10:20:24.880Z,1.70
2019-05-13T10:22:58.072Z,1.57
2019-05-13T10:25:27.696Z,1.80
2019-05-13T10:27:56.298Z,2.03
2019-05-13T10:30:24.771Z,1.70
2019-05-13T10:32:53.332Z,1.85
2019-05-13T10:35:23.722Z,1.90
2019-05-13T10:37:52.420Z,1.97
2019-05-13T10:40:22.941Z,1.77
2019-05-13T10:42:52.371Z,2.33
2019-05-13T10:45:22.300Z,1.90
2019-05-13T10:47:51.938Z,1.77
2019-05-13T10:50:27.751Z,2.10
2019-05-13T10:53:02.715Z,2.05
2019-05-13T10:55:32.482Z,1.70
2019-05-13T10:58:02.580Z,2.07
2019-05-13T11:00:42.328Z,2.17
2019-05-13T11:03:15.880Z,1.50
2019-05-13T11:05:52.201Z,1.97
2019-05-13T11:08:22.711Z,1.83
2019-05-13T11:10:53.026Z,2.03
2019-05-13T11:13:23.215Z,2.03
2019-05-13T11:15:58.292Z,2.30
2019-05-13T11:18:25.810Z,1.50
2019-05-13T11:20:54.419Z,1.72
2019-05-13T11:23:23.561Z,1.93
2019-05-13T11:25:55.410Z,1.70
2019-05-13T11:28:24.014Z,1.63
2019-05-13T11:30:59.346Z,2.00
2019-05-13T11:33:26.903Z,1.60
2019-05-13T11:35:55.504Z,1.53
2019-05-13T11:38:24.505Z,1.30
2019-05-13T11:40:54.292Z,1.83
2019-05-13T11:43:28.105Z,1.67
2019-05-13T11:46:02.307Z,1.70
2019-05-13T11:48:32.248Z,1.60
2019-05-13T11:51:04.098Z,1.77
2019-05-13T11:53:34.572Z,1.20
2019-05-13T11:56:03.577Z,1.23
2019-05-13T11:58:32.698Z,1.50
2019-05-13T12:01:02.589Z,1.53
2019-05-13T12:03:33.700Z,1.40
2019-05-13T12:06:03.177Z,1.73
2019-05-13T12:08:33.771Z,1.70
2019-05-13T12:11:04.073Z,1.50
2019-05-13T12:13:37.289Z,1.70
2019-05-13T12:16:07.319Z,1.72
2019-05-13T12:18:43.217Z,1.70
2019-05-13T12:21:06.345Z,1.63
2019-05-13T12:23:42.833Z,1.37
2019-05-13T12:26:12.904Z,1.90
2019-05-13T12:28:42.111Z,1.40
2019-05-13T12:31:13.844Z,1.50
2019-05-13T12:33:44.561Z,1.43
2019-05-13T12:36:18.158Z,1.53
2019-05-13T12:38:44.901Z,1.87
2019-05-13T12:41:13.480Z,1.60
2019-05-13T12:43:42.705Z,2.20
2019-05-13T12:46:12.523Z,1.73
2019-05-13T12:48:41.386Z,1.52
2019-05-13T12:51:13.189Z,2.08
2019-05-13T12:53:43.437Z,1.50
2019-05-13T12:56:12.576Z,1.87
2019-05-13T12:58:41.244Z,1.70
2019-05-13T13:01:12.535Z,1.83
2019-05-13T13:03:40.431Z,2.50
2019-05-13T13:06:29.991Z,2.60
2019-05-13T13:08:47.509Z,2.90
2019-05-13T13:11:09.848Z,2.90
2019-05-13T13:13:57.818Z,2.20
2019-05-13T13:16:12.450Z,2.63
2019-05-13T13:18:43.540Z,2.37
2019-05-13T13:21:14.372Z,2.33
2019-05-13T13:23:44.454Z,2.37
2019-05-13T13:26:15.797Z,2.83
2019-05-13T13:28:43.728Z,3.00
2019-05-13T13:31:13.099Z,2.80
2019-05-13T13:33:44.585Z,3.08
2019-05-13T13:36:15.651Z,2.97
2019-05-13T13:38:45.518Z,2.37
2019-05-13T13:41:22.374Z,2.50
2019-05-13T13:43:44.241Z,2.50
2019-05-13T13:46:32.341Z,2.80
2019-05-13T13:48:44.661Z,2.23
2019-05-13T13:51:14.421Z,2.20
2019-05-13T13:53:45.543Z,2.50
2019-05-13T13:56:14.999Z,2.30
2019-05-13T13:58:44.468Z,2.33
2019-05-13T14:01:19.928Z,2.40
2019-05-13T14:03:47.333Z,2.50
2019-05-13T14:07:13.511Z,2.07
2019-05-13T14:08:48.746Z,1.93
2019-05-13T14:11:22.778Z,2.27
2019-05-13T14:13:51.835Z,2.20
2019-05-13T14:16:28.037Z,2.50
2019-05-13T14:18:52.327Z,2.15
2019-05-13T14:21:21.620Z,2.70
2019-05-13T14:23:52.024Z,2.07
2019-05-13T14:26:22.689Z,2.30
2019-05-13T14:28:53.807Z,2.60
2019-05-13T14:31:22.511Z,2.27
2019-05-13T14:33:52.297Z,2.50
2019-05-13T14:36:23.057Z,2.40
2019-05-13T14:38:52.646Z,2.33
2019-05-13T14:41:24.421Z,2.30
2019-05-13T14:43:56.113Z,2.10
2019-05-13T14:46:43.159Z,2.43
2019-05-13T14:48:55.714Z,2.00
2019-05-13T14:51:24.311Z,2.30
2019-05-13T14:53:55.571Z,2.10
2019-05-13T14:56:26.204Z,1.97
2019-05-13T14:58:54.736Z,2.00
2019-05-13T15:01:23.253Z,2.30
2019-05-13T15:03:53.262Z,2.30
2019-05-13T15:06:22.350Z,2.20
2019-05-13T15:08:52.598Z,2.03
2019-05-13T15:11:22.050Z,1.97
2019-05-13T15:13:51.813Z,2.30
2019-05-13T15:16:24.289Z,2.50
2019-05-13T15:18:52.969Z,2.47
2019-05-13T15:21:23.027Z,2.27
2019-05-13T15:23:51.924Z,1.87
2019-05-13T15:26:22.241Z,2.20
2019-05-13T15:28:51.905Z,2.07
2019-05-13T15:31:22.635Z,2.10
2019-05-13T15:33:52.355Z,2.02
2019-05-13T15:36:22.519Z,2.90
2019-05-13T15:38:52.309Z,2.60
2019-05-13T15:41:20.918Z,3.23
2019-05-13T15:43:51.938Z,2.63
2019-05-13T15:46:23.527Z,4.75
2019-05-13T15:48:53.600Z,3.43
2019-05-13T15:51:24.928Z,5.70
2019-05-13T15:53:53.523Z,2.50
2019-05-13T15:56:31.753Z,2.10
2019-05-13T15:58:53.219Z,3.90
2019-05-13T16:01:22.947Z,1.85
2019-05-13T16:03:52.946Z,1.62
2019-05-13T16:06:24.634Z,1.60
2019-05-13T16:08:53.175Z,1.70
2019-05-13T16:11:22.243Z,2.27
2019-05-13T16:13:51.829Z,2.50
2019-05-13T16:16:22.008Z,2.27
2019-05-13T16:18:51.880Z,2.40
2019-05-13T16:21:23.435Z,2.20
2019-05-13T16:23:52.105Z,2.20
2019-05-13T16:26:31.858Z,2.23
2019-05-13T16:29:05.010Z,2.00
2019-05-13T16:31:34.932Z,2.23
2019-05-13T16:34:04.636Z,1.67
2019-05-13T16:36:34.578Z,1.40
2019-05-13T16:39:09.174Z,1.90
2019-05-13T16:41:42.621Z,2.00
2019-05-13T16:44:11.857Z,1.90
2019-05-13T16:46:43.709Z,1.95
2019-05-13T16:49:16.634Z,1.90
2019-05-13T16:51:45.136Z,2.27
2019-05-13T16:54:34.496Z,1.97
2019-05-13T16:57:03.577Z,1.90
2019-05-13T16:59:32.095Z,2.55
2019-05-13T17:02:03.456Z,2.20
2019-05-13T17:04:32.301Z,3.63
2019-05-13T17:07:01.646Z,5.92
2019-05-13T17:09:32.386Z,1.83
2019-05-13T17:12:01.755Z,2.20
2019-05-13T17:14:32.236Z,1.97
2019-05-13T17:17:01.426Z,1.80
2019-05-13T17:19:31.788Z,1.90
2019-05-13T17:22:02.332Z,2.22
2019-05-13T17:24:35.923Z,2.05
2019-05-13T17:27:04.432Z,2.22
2019-05-13T17:29:34.186Z,2.23
2019-05-13T17:32:03.154Z,2.30
2019-05-13T17:34:32.123Z,2.60
2019-05-13T17:37:02.767Z,2.70
2019-05-13T17:39:33.753Z,2.62
2019-05-13T17:42:06.708Z,2.40
2019-05-13T17:44:36.389Z,2.57
2019-05-13T17:47:05.091Z,2.43
2019-05-13T17:49:35.490Z,2.47
2019-05-13T17:52:03.959Z,2.70
2019-05-13T17:54:37.027Z,2.50
2019-05-13T17:57:07.884Z,2.70
2019-05-13T17:59:37.715Z,2.77
2019-05-13T18:02:06.351Z,2.47
2019-05-13T18:04:36.900Z,2.80
2019-05-13T18:07:06.446Z,3.00
2019-05-13T18:09:36.583Z,2.80
2019-05-13T18:12:05.340Z,3.17
2019-05-13T18:14:35.376Z,2.70
2019-05-13T18:17:03.918Z,2.70
2019-05-13T18:19:35.269Z,3.10
2019-05-13T18:22:05.863Z,2.60
2019-05-13T18:24:36.109Z,2.40
2019-05-13T18:27:08.834Z,2.60
2019-05-13T18:29:37.300Z,2.40
2019-05-13T18:32:08.606Z,2.30
2019-05-13T18:34:37.221Z,2.70
2019-05-13T18:37:08.357Z,3.00
2019-05-13T18:39:36.851Z,2.77
2019-05-13T18:42:06.404Z,2.77
2019-05-13T18:44:35.239Z,2.10
2019-05-13T18:47:03.773Z,2.83
2019-05-13T18:49:39.549Z,2.60
2019-05-13T18:52:05.425Z,2.73
2019-05-13T18:54:33.959Z,2.80
2019-05-13T18:57:04.293Z,2.57
2019-05-13T18:59:32.743Z,2.25
2019-05-13T19:02:01.676Z,2.23
2019-05-13T19:04:31.337Z,2.13
2019-05-13T19:07:02.349Z,1.87
2019-05-13T19:09:31.215Z,2.07
2019-05-13T19:12:01.373Z,2.10
2019-05-13T19:14:33.000Z,2.27
2019-05-13T19:17:01.475Z,2.45
2019-05-13T19:19:31.810Z,2.00
2019-05-13T19:22:02.153Z,1.83
2019-05-13T19:24:31.657Z,2.23
2019-05-13T19:27:01.681Z,2.10
2019-05-13T19:29:31.785Z,2.07
2019-05-13T19:32:01.767Z,2.37
2019-05-13T19:34:32.605Z,2.17
2019-05-13T19:37:02.435Z,2.13
2019-05-13T19:39:34.180Z,1.90
2019-05-13T19:42:04.198Z,1.90
2019-05-13T19:44:32.802Z,1.53
2019-05-13T19:47:06.744Z,1.67
2019-05-13T19:49:37.493Z,1.87
2019-05-13T19:52:06.220Z,2.10
2019-05-13T19:54:36.353Z,1.60
2019-05-13T19:57:05.367Z,1.60
2019-05-13T19:59:33.841Z,1.80
2019-05-13T20:02:02.391Z,1.90
2019-05-13T20:04:36.502Z,1.47
2019-05-13T20:07:06.232Z,1.80
2019-05-13T20:09:34.729Z,1.60
2019-05-13T20:12:07.742Z,1.73
2019-05-13T20:14:39.386Z,1.47
2019-05-13T20:17:09.542Z,1.87
2019-05-13T20:19:47.806Z,1.37
2019-05-13T20:22:08.214Z,1.67
2019-05-13T20:24:42.002Z,2.00
2019-05-13T20:27:11.983Z,2.37
2019-05-13T20:29:41.714Z,1.67
2019-05-13T20:32:14.168Z,2.22
2019-05-13T20:34:42.701Z,1.60
2019-05-13T20:37:12.401Z,1.50
2019-05-13T20:39:42.417Z,1.60
2019-05-13T20:42:12.534Z,1.75
2019-05-13T20:44:41.930Z,1.52
2019-05-13T20:47:11.272Z,1.50
2019-05-13T20:49:41.656Z,2.00
2019-05-13T20:52:13.772Z,1.50
2019-05-13T20:54:41.701Z,1.40
2019-05-13T20:57:10.362Z,1.70
2019-05-13T20:59:41.195Z,1.50
2019-05-13T21:02:09.260Z,1.67
2019-05-13T21:04:38.598Z,1.50
2019-05-13T21:07:08.666Z,1.47
2019-05-13T21:09:37.180Z,1.77
2019-05-13T21:12:05.659Z,1.50
2019-05-13T21:14:34.190Z,1.60
2019-05-13T21:17:02.721Z,1.53
2019-05-13T21:19:39.369Z,1.50
2019-05-13T21:22:02.627Z,1.50
2019-05-13T21:24:31.917Z,1.90
2019-05-13T21:27:03.497Z,1.73
2019-05-13T21:29:32.434Z,1.63
2019-05-13T21:32:02.541Z,2.00
2019-05-13T21:34:32.305Z,2.13
2019-05-13T21:37:02.331Z,1.40
2019-05-13T21:39:32.019Z,1.87
2019-05-13T21:42:02.408Z,2.00
2019-05-13T21:44:32.687Z,1.73
2019-05-13T21:47:02.192Z,1.70
2019-05-13T21:49:33.509Z,2.10
2019-05-13T21:52:09.201Z,1.60
2019-05-13T21:54:37.890Z,1.63
2019-05-13T21:57:11.344Z,1.60
2019-05-13T21:59:45.187Z,1.90
2019-05-13T22:02:15.249Z,2.02
2019-05-13T22:04:45.099Z,1.40
2019-05-13T22:07:15.267Z,1.70
2019-05-13T22:09:43.903Z,1.80
2019-05-13T22:12:18.213Z,1.60
2019-05-13T22:14:48.353Z,1.73
2019-05-13T22:17:16.901Z,1.97
2019-05-13T22:19:47.015Z,1.90
2019-05-13T22:22:15.481Z,1.40
2019-05-13T22:24:48.616Z,1.60
2019-05-13T22:27:21.859Z,2.00
2019-05-13T22:29:51.675Z,2.00
2019-05-13T22:32:30.590Z,1.57
2019-05-13T22:35:01.957Z,2.40
2019-05-13T22:37:31.331Z,1.80
2019-05-13T22:40:01.550Z,2.30
2019-05-13T22:42:34.098Z,2.40
2019-05-13T22:45:02.958Z,1.80
2019-05-13T22:47:35.474Z,1.67
2019-05-13T22:50:11.484Z,1.93
2019-05-13T22:52:44.122Z,1.80
2019-05-13T22:55:15.902Z,2.00
2019-05-13T22:57:47.312Z,2.03
2019-05-13T23:00:16.334Z,1.80
2019-05-13T23:02:47.407Z,2.10
2019-05-13T23:05:18.732Z,2.10
2019-05-13T23:07:47.306Z,1.67
2019-05-13T23:10:18.384Z,1.97
2019-05-13T23:12:48.207Z,1.80
2019-05-13T23:15:21.144Z,1.97
2019-05-13T23:17:52.098Z,2.17
2019-05-13T23:20:21.840Z,2.20
2019-05-13T23:22:52.064Z,2.20
2019-05-13T23:25:22.061Z,2.07
2019-05-13T23:27:59.513Z,2.10
2019-05-13T23:30:28.026Z,2.00
2019-05-13T23:32:56.753Z,2.10
2019-05-13T23:35:26.853Z,2.60
2019-05-13T23:38:01.482Z,2.37
2019-05-13T23:40:35.158Z,2.50
2019-05-13T23:43:03.852Z,1.92
2019-05-13T23:45:32.502Z,2.12
2019-05-13T23:48:03.881Z,2.10
2019-05-13T23:50:34.010Z,2.23
2019-05-13T23:53:02.548Z,2.17
2019-05-13T23:55:32.120Z,1.87
2019-05-13T23:58:03.474Z,2.27
